createdAt,value
2019-05-19T00:02:18.788Z,83.90
2019-05-19T00:04:47.232Z,83.30
2019-05-19T00:07:15.693Z,83.80
2019-05-19T00:09:44.151Z,83.70
2019-05-19T00:12:12.580Z,84.00
2019-05-19T00:14:41.052Z,84.10
2019-05-19T00:17:09.546Z,84.20
2019-05-19T00:19:38.072Z,84.70
2019-05-19T00:22:06.518Z,84.80
2019-05-19T00:24:34.992Z,84.90
2019-05-19T00:27:03.532Z,85.00
2019-05-19T00:29:31.982Z,85.10
2019-05-19T00:32:00.421Z,85.30
2019-05-19T00:34:28.902Z,85.00
2019-05-19T00:36:58.834Z,85.00
2019-05-19T00:39:27.284Z,85.10
2019-05-19T00:41:55.889Z,85.30
2019-05-19T00:44:24.331Z,85.50
2019-05-19T00:46:52.789Z,85.70
2019-05-19T00:49:21.308Z,85.90
2019-05-19T00:51:49.822Z,86.00
2019-05-19T00:54:20.366Z,86.20
2019-05-19T00:56:49.688Z,86.10
2019-05-19T00:59:19.271Z,86.30
2019-05-19T01:01:47.762Z,86.30
2019-05-19T01:04:16.200Z,86.50
2019-05-19T01:06:44.917Z,86.60
2019-05-19T01:09:13.438Z,86.70
2019-05-19T01:11:41.875Z,86.90
2019-05-19T01:14:10.343Z,87.10
2019-05-19T01:16:38.796Z,86.90
2019-05-19T01:19:10.017Z,86.80
2019-05-19T01:21:39.711Z,86.80
2019-05-19T01:24:08.168Z,86.80
2019-05-19T01:26:36.623Z,87.10
2019-05-19T01:29:05.210Z,87.50
2019-05-19T01:31:33.696Z,87.40
2019-05-19T01:34:05.192Z,87.40
2019-05-19T01:36:33.718Z,87.50
2019-05-19T01:39:02.164Z,87.70
2019-05-19T01:41:30.644Z,87.80
2019-05-19T01:43:59.138Z,87.80
2019-05-19T01:46:27.596Z,87.80
2019-05-19T01:48:56.049Z,87.90
2019-05-19T01:51:26.043Z,88.60
2019-05-19T01:53:54.589Z,88.50
2019-05-19T01:56:23.035Z,88.70
2019-05-19T01:58:51.492Z,88.80
2019-05-19T02:01:24.052Z,89.00
2019-05-19T02:03:50.106Z,89.10
2019-05-19T02:06:18.556Z,89.40
2019-05-19T02:08:47.096Z,89.30
2019-05-19T02:11:15.613Z,89.40
2019-05-19T02:13:44.076Z,89.80
2019-05-19T02:16:14.177Z,90.10
2019-05-19T02:18:42.633Z,90.10
2019-05-19T02:21:11.082Z,90.00
2019-05-19T02:23:39.533Z,90.30
2019-05-19T02:26:07.992Z,90.20
2019-05-19T02:28:36.433Z,90.10
2019-05-19T02:31:08.024Z,90.30
2019-05-19T02:33:39.224Z,90.20
2019-05-19T02:36:07.860Z,90.30
2019-05-19T02:38:36.313Z,90.40
2019-05-19T02:41:05.896Z,90.20
2019-05-19T02:43:35.024Z,90.10
2019-05-19T02:46:04.611Z,90.10
2019-05-19T02:48:34.000Z,90.30
2019-05-19T02:51:04.378Z,90.30
2019-05-19T02:53:33.235Z,90.20
2019-05-19T02:56:03.304Z,90.20
2019-05-19T02:58:33.371Z,90.20
2019-05-19T03:01:01.822Z,90.20
2019-05-19T03:03:30.292Z,90.60
2019-05-19T03:05:58.749Z,91.10
2019-05-19T03:08:27.201Z,91.10
2019-05-19T03:10:57.328Z,90.80
2019-05-19T03:13:25.775Z,91.00
2019-05-19T03:15:54.241Z,90.80
2019-05-19T03:18:22.756Z,90.80
2019-05-19T03:20:51.222Z,90.80
2019-05-19T03:23:19.664Z,90.70
2019-05-19T03:25:48.148Z,90.60
2019-05-19T03:28:16.656Z,90.50
2019-05-19T03:30:46.754Z,90.40
2019-05-19T03:33:33.018Z,90.40
2019-05-19T03:36:01.466Z,90.50
2019-05-19T03:38:29.933Z,90.50
2019-05-19T03:40:58.372Z,90.50
2019-05-19T03:43:26.828Z,90.70
2019-05-19T03:45:55.289Z,90.80
2019-05-19T03:48:23.732Z,91.00
2019-05-19T03:50:52.187Z,91.10
2019-05-19T03:53:20.627Z,91.10
2019-05-19T03:55:50.462Z,91.30
2019-05-19T03:58:18.902Z,91.40
2019-05-19T04:00:47.370Z,91.50
2019-05-19T04:03:15.807Z,91.70
2019-05-19T04:05:44.315Z,91.90
2019-05-19T04:08:12.764Z,91.80
2019-05-19T04:10:41.204Z,91.90
2019-05-19T04:13:09.660Z,91.90
2019-05-19T04:15:38.111Z,91.80
2019-05-19T04:18:06.630Z,91.80
2019-05-19T04:20:54.411Z,91.80
2019-05-19T04:23:23.848Z,91.90
2019-05-19T04:25:53.824Z,92.00
2019-05-19T04:28:22.540Z,92.10
2019-05-19T04:30:51.057Z,92.10
2019-05-19T04:33:19.600Z,92.10
2019-05-19T04:35:48.031Z,92.40
2019-05-19T04:38:16.473Z,92.50
2019-05-19T04:40:44.931Z,92.80
2019-05-19T04:43:13.405Z,92.70
2019-05-19T04:45:41.879Z,92.70
2019-05-19T04:48:10.331Z,92.80
2019-05-19T04:50:38.801Z,92.80
2019-05-19T04:53:07.239Z,92.90
2019-05-19T04:55:35.691Z,92.90
2019-05-19T04:58:04.134Z,93.00
2019-05-19T05:00:32.661Z,93.00
2019-05-19T05:03:01.180Z,93.10
2019-05-19T05:05:29.627Z,93.20
2019-05-19T05:07:58.265Z,93.20
2019-05-19T05:10:26.785Z,93.20
2019-05-19T05:12:55.489Z,93.40
2019-05-19T05:15:23.957Z,93.20
2019-05-19T05:17:52.431Z,93.10
2019-05-19T05:20:21.090Z,93.00
2019-05-19T05:22:49.527Z,92.90
2019-05-19T05:25:18.939Z,93.10
2019-05-19T05:27:47.402Z,93.20
2019-05-19T05:30:16.180Z,93.00
2019-05-19T05:32:44.644Z,92.90
2019-05-19T05:35:13.231Z,93.10
2019-05-19T05:37:41.696Z,93.20
2019-05-19T05:40:10.510Z,93.00
2019-05-19T05:42:39.063Z,93.10
2019-05-19T05:45:13.349Z,93.00
2019-05-19T05:47:41.835Z,93.00
2019-05-19T05:50:10.725Z,93.00
2019-05-19T05:52:39.315Z,92.90
2019-05-19T05:55:07.971Z,93.00
2019-05-19T05:57:36.408Z,92.90
2019-05-19T06:00:09.230Z,92.80
2019-05-19T06:02:37.670Z,92.80
2019-05-19T06:05:06.882Z,92.80
2019-05-19T06:07:35.322Z,92.70
2019-05-19T06:10:05.819Z,92.50
2019-05-19T06:12:34.263Z,92.30
2019-05-19T06:15:02.720Z,92.10
2019-05-19T06:17:31.176Z,92.00
2019-05-19T06:19:59.637Z,91.90
2019-05-19T06:22:28.092Z,91.70
2019-05-19T06:24:59.123Z,91.50
2019-05-19T06:27:26.716Z,91.50
2019-05-19T06:29:55.239Z,91.70
2019-05-19T06:32:27.863Z,91.90
2019-05-19T06:34:56.328Z,91.70
2019-05-19T06:37:24.813Z,91.50
2019-05-19T06:39:53.286Z,91.30
2019-05-19T06:42:21.732Z,90.50
2019-05-19T06:44:52.763Z,88.90
2019-05-19T06:47:21.238Z,87.80
2019-05-19T06:49:49.748Z,86.80
2019-05-19T06:52:18.209Z,85.70
2019-05-19T06:54:46.647Z,85.10
2019-05-19T06:57:15.094Z,85.30
2019-05-19T06:59:45.176Z,85.70
2019-05-19T07:02:13.623Z,86.00
2019-05-19T07:04:42.151Z,86.80
2019-05-19T07:07:10.624Z,85.90
2019-05-19T07:09:39.140Z,85.00
2019-05-19T07:12:07.628Z,83.90
2019-05-19T07:14:36.148Z,82.90
2019-05-19T07:17:04.608Z,82.00
2019-05-19T07:19:33.047Z,81.20
2019-05-19T07:22:01.506Z,80.20
2019-05-19T07:24:29.954Z,79.20
2019-05-19T07:26:58.415Z,79.00
2019-05-19T07:29:26.921Z,78.10
2019-05-19T07:31:55.398Z,77.90
2019-05-19T07:34:23.899Z,77.00
2019-05-19T07:36:52.351Z,76.40
2019-05-19T07:39:20.871Z,76.30
2019-05-19T07:41:49.321Z,75.90
2019-05-19T07:44:17.788Z,75.20
2019-05-19T07:46:46.247Z,74.20
2019-05-19T07:49:14.694Z,73.90
2019-05-19T07:51:43.201Z,73.80
2019-05-19T07:54:11.796Z,72.70
2019-05-19T07:56:40.242Z,71.40
2019-05-19T07:59:08.677Z,70.80
2019-05-19T08:01:37.146Z,70.30
2019-05-19T08:04:05.600Z,69.60
2019-05-19T08:06:35.074Z,69.10
2019-05-19T08:09:05.242Z,68.80
2019-05-19T08:11:34.037Z,68.70
2019-05-19T08:14:02.723Z,68.40
2019-05-19T08:16:33.715Z,67.40
2019-05-19T08:19:02.158Z,66.70
2019-05-19T08:21:30.614Z,66.80
2019-05-19T08:24:00.800Z,66.20
2019-05-19T08:26:29.317Z,65.20
2019-05-19T08:28:57.763Z,65.00
2019-05-19T08:31:27.194Z,64.00
2019-05-19T08:33:55.704Z,63.00
2019-05-19T08:36:24.240Z,62.90
2019-05-19T08:38:52.752Z,63.40
2019-05-19T08:41:21.200Z,63.50
2019-05-19T08:43:49.643Z,63.60
2019-05-19T08:46:18.109Z,63.60
2019-05-19T08:48:46.570Z,63.10
2019-05-19T08:51:15.019Z,62.90
2019-05-19T08:53:43.484Z,61.80
2019-05-19T08:56:11.942Z,62.00
2019-05-19T08:58:40.477Z,61.50
2019-05-19T09:01:08.920Z,61.00
2019-05-19T09:03:37.416Z,60.90
2019-05-19T09:06:05.909Z,60.40
2019-05-19T09:08:34.358Z,60.90
2019-05-19T09:11:02.825Z,60.80
2019-05-19T09:13:31.262Z,60.00
2019-05-19T09:15:59.734Z,60.10
2019-05-19T09:18:28.179Z,60.00
2019-05-19T09:20:56.627Z,59.40
2019-05-19T09:23:25.083Z,59.10
2019-05-19T09:25:53.529Z,58.30
2019-05-19T09:28:21.975Z,58.10
2019-05-19T09:30:50.434Z,56.90
2019-05-19T09:33:19.058Z,57.40
2019-05-19T09:35:47.515Z,58.20
2019-05-19T09:38:15.962Z,58.50
2019-05-19T09:40:44.403Z,58.20
2019-05-19T09:43:12.864Z,57.80
2019-05-19T09:45:41.300Z,58.50
2019-05-19T09:48:09.831Z,58.70
2019-05-19T09:50:38.280Z,59.30
2019-05-19T09:53:06.720Z,59.40
2019-05-19T09:55:35.185Z,59.60
2019-05-19T09:58:03.614Z,59.80
2019-05-19T10:00:32.448Z,59.70
2019-05-19T10:03:00.896Z,59.80
2019-05-19T10:05:29.356Z,59.40
2019-05-19T10:07:57.804Z,59.10
2019-05-19T10:10:34.149Z,58.50
2019-05-19T10:13:02.619Z,58.80
2019-05-19T10:15:31.114Z,58.60
2019-05-19T10:17:59.579Z,57.70
2019-05-19T10:20:28.024Z,57.10
2019-05-19T10:22:58.584Z,57.30
2019-05-19T10:25:27.027Z,57.10
2019-05-19T10:27:55.487Z,57.30
2019-05-19T10:30:24.089Z,57.00
2019-05-19T10:32:52.532Z,56.60
2019-05-19T10:35:21.020Z,55.90
2019-05-19T10:37:49.549Z,55.90
2019-05-19T10:40:21.085Z,56.30
2019-05-19T10:42:55.639Z,55.70
2019-05-19T10:45:23.335Z,55.80
2019-05-19T10:47:51.790Z,55.40
2019-05-19T10:50:20.250Z,55.70
2019-05-19T10:52:48.793Z,55.10
2019-05-19T10:55:17.234Z,54.50
2019-05-19T10:57:45.695Z,54.70
2019-05-19T11:00:14.475Z,54.70
2019-05-19T11:02:42.998Z,54.00
2019-05-19T11:05:11.905Z,52.40
2019-05-19T11:07:40.360Z,52.60
2019-05-19T11:10:08.882Z,52.40
2019-05-19T11:12:38.959Z,52.90
2019-05-19T11:15:08.156Z,53.20
2019-05-19T11:17:36.603Z,53.20
2019-05-19T11:20:06.097Z,52.00
2019-05-19T11:22:34.529Z,52.80
2019-05-19T11:25:03.199Z,52.50
2019-05-19T11:27:31.671Z,50.80
2019-05-19T11:30:00.147Z,50.20
2019-05-19T11:32:28.596Z,50.90
2019-05-19T11:34:57.026Z,51.20
2019-05-19T11:37:25.475Z,51.40
2019-05-19T11:39:53.920Z,50.00
2019-05-19T11:42:22.371Z,50.20
2019-05-19T11:44:50.815Z,50.30
2019-05-19T11:47:19.258Z,49.70
2019-05-19T11:49:47.706Z,49.40
2019-05-19T11:52:16.148Z,49.20
2019-05-19T11:54:44.599Z,49.30
2019-05-19T11:57:13.029Z,49.40
2019-05-19T11:59:41.491Z,49.10
2019-05-19T12:02:09.952Z,48.60
2019-05-19T12:04:38.392Z,48.40
2019-05-19T12:07:06.845Z,48.10
2019-05-19T12:09:35.299Z,48.20
2019-05-19T12:12:03.748Z,47.00
2019-05-19T12:14:32.201Z,47.40
2019-05-19T12:17:00.650Z,47.40
2019-05-19T12:19:29.088Z,46.40
2019-05-19T12:21:57.541Z,46.10
2019-05-19T12:24:25.976Z,45.50
2019-05-19T12:26:54.446Z,45.10
2019-05-19T12:29:22.874Z,45.90
2019-05-19T12:32:10.672Z,46.40
2019-05-19T12:34:39.102Z,47.10
2019-05-19T12:37:07.543Z,48.10
2019-05-19T12:39:36.001Z,48.60
2019-05-19T12:42:04.499Z,48.70
2019-05-19T12:44:32.952Z,48.30
2019-05-19T12:47:01.398Z,44.30
2019-05-19T12:49:29.886Z,41.60
2019-05-19T12:51:58.343Z,41.90
2019-05-19T12:54:26.824Z,44.00
2019-05-19T12:56:55.320Z,44.60
2019-05-19T12:59:23.759Z,45.10
2019-05-19T13:01:52.208Z,45.60
2019-05-19T13:04:20.653Z,45.50
2019-05-19T13:06:50.818Z,44.00
2019-05-19T13:09:19.319Z,44.40
2019-05-19T13:11:47.756Z,43.80
2019-05-19T13:14:16.213Z,42.80
2019-05-19T13:16:44.650Z,42.30
2019-05-19T13:19:13.109Z,42.90
2019-05-19T13:21:41.550Z,42.90
2019-05-19T13:24:09.987Z,43.70
2019-05-19T13:26:38.449Z,43.80
2019-05-19T13:29:06.914Z,42.80
2019-05-19T13:31:35.387Z,42.50
2019-05-19T13:34:03.940Z,43.50
2019-05-19T13:36:32.395Z,43.70
2019-05-19T13:39:01.216Z,43.50
2019-05-19T13:41:29.658Z,44.10
2019-05-19T13:43:59.756Z,44.60
2019-05-19T13:46:28.609Z,45.30
2019-05-19T13:48:57.078Z,45.40
2019-05-19T13:51:25.531Z,45.70
2019-05-19T13:53:53.974Z,46.20
2019-05-19T13:56:22.402Z,46.60
2019-05-19T13:58:50.860Z,46.00
2019-05-19T14:01:28.242Z,45.00
2019-05-19T14:03:52.159Z,44.60
2019-05-19T14:06:19.745Z,43.90
2019-05-19T14:08:48.182Z,42.80
2019-05-19T14:11:16.628Z,43.80
2019-05-19T14:13:45.068Z,44.50
2019-05-19T14:16:13.520Z,45.40
2019-05-19T14:18:41.974Z,45.20
2019-05-19T14:21:10.406Z,45.60
2019-05-19T14:23:39.610Z,46.00
2019-05-19T14:26:08.131Z,45.20
2019-05-19T14:28:36.588Z,45.00
2019-05-19T14:31:05.042Z,45.30
2019-05-19T14:33:33.503Z,45.30
2019-05-19T14:36:02.000Z,46.40
2019-05-19T14:38:30.490Z,47.30
2019-05-19T14:40:58.976Z,48.20
2019-05-19T14:43:29.067Z,50.30
2019-05-19T14:45:57.537Z,50.70
2019-05-19T14:48:25.974Z,50.90
2019-05-19T14:50:54.436Z,51.80
2019-05-19T14:53:22.878Z,53.30
2019-05-19T14:55:51.327Z,55.10
2019-05-19T14:58:19.782Z,56.30
2019-05-19T15:00:48.229Z,57.30
2019-05-19T15:03:16.694Z,57.70
2019-05-19T15:05:45.137Z,58.20
2019-05-19T15:08:13.588Z,58.60
2019-05-19T15:10:42.026Z,58.90
2019-05-19T15:13:10.487Z,59.60
2019-05-19T15:15:38.929Z,60.00
2019-05-19T15:18:07.370Z,60.40
2019-05-19T15:20:35.819Z,60.70
2019-05-19T15:23:04.267Z,60.60
2019-05-19T15:25:32.716Z,60.90
2019-05-19T15:28:05.034Z,60.70
2019-05-19T15:30:31.352Z,61.40
2019-05-19T15:32:59.883Z,60.20
2019-05-19T15:35:28.329Z,54.30
2019-05-19T15:38:00.068Z,49.90
2019-05-19T15:40:28.507Z,50.70
2019-05-19T15:42:56.963Z,50.90
2019-05-19T15:45:25.420Z,51.70
2019-05-19T15:47:53.856Z,51.40
2019-05-19T15:50:22.377Z,52.00
2019-05-19T15:52:50.817Z,52.80
2019-05-19T15:55:19.269Z,54.20
2019-05-19T15:57:47.703Z,56.10
2019-05-19T16:00:16.910Z,57.70
2019-05-19T16:02:45.356Z,58.80
2019-05-19T16:05:14.723Z,60.70
2019-05-19T16:07:43.301Z,62.10
2019-05-19T16:10:12.423Z,63.30
2019-05-19T16:12:40.880Z,63.80
2019-05-19T16:15:09.694Z,64.70
2019-05-19T16:17:38.146Z,64.50
2019-05-19T16:20:08.293Z,65.40
2019-05-19T16:22:37.735Z,65.80
2019-05-19T16:25:07.451Z,66.20
2019-05-19T16:27:36.017Z,66.00
2019-05-19T16:30:07.287Z,66.00
2019-05-19T16:32:35.743Z,64.90
2019-05-19T16:35:06.566Z,63.00
2019-05-19T16:37:35.042Z,62.80
2019-05-19T16:40:03.638Z,62.10
2019-05-19T16:42:32.079Z,61.10
2019-05-19T16:45:00.537Z,60.90
2019-05-19T16:47:28.965Z,60.80
2019-05-19T16:49:57.411Z,59.70
2019-05-19T16:52:25.861Z,58.40
2019-05-19T16:55:10.889Z,58.50
2019-05-19T16:57:38.612Z,58.50
2019-05-19T17:00:07.107Z,58.40
2019-05-19T17:02:35.561Z,57.30
2019-05-19T17:05:05.735Z,57.60
2019-05-19T17:07:34.179Z,58.00
2019-05-19T17:10:02.662Z,57.70
2019-05-19T17:12:31.136Z,57.80
2019-05-19T17:14:59.572Z,57.50
2019-05-19T17:17:28.008Z,57.80
2019-05-19T17:19:56.451Z,58.00
2019-05-19T17:22:24.892Z,58.30
2019-05-19T17:24:53.343Z,58.90
2019-05-19T17:27:21.776Z,59.50
2019-05-19T17:29:50.223Z,60.00
2019-05-19T17:32:18.660Z,61.00
2019-05-19T17:34:47.110Z,61.20
2019-05-19T17:37:15.543Z,61.60
2019-05-19T17:39:43.979Z,61.90
2019-05-19T17:42:13.859Z,62.60
2019-05-19T17:44:44.106Z,63.40
2019-05-19T17:47:12.544Z,63.80
2019-05-19T17:49:40.988Z,64.30
2019-05-19T17:52:09.441Z,64.60
2019-05-19T17:54:38.047Z,65.30
2019-05-19T17:57:06.501Z,65.60
2019-05-19T17:59:35.687Z,65.90
2019-05-19T18:02:04.295Z,66.10
2019-05-19T18:04:32.732Z,66.40
2019-05-19T18:07:01.185Z,66.90
2019-05-19T18:09:29.631Z,67.00
2019-05-19T18:11:58.077Z,67.20
2019-05-19T18:14:26.540Z,67.40
2019-05-19T18:16:54.984Z,67.60
2019-05-19T18:19:23.424Z,67.90
2019-05-19T18:21:51.876Z,68.30
2019-05-19T18:24:20.332Z,68.50
2019-05-19T18:26:48.846Z,68.80
2019-05-19T18:29:30.463Z,69.10
2019-05-19T18:31:47.457Z,69.00
2019-05-19T18:34:15.913Z,69.20
2019-05-19T18:36:46.043Z,69.40
2019-05-19T18:39:14.475Z,69.70
2019-05-19T18:41:42.939Z,70.20
2019-05-19T18:44:11.444Z,70.60
2019-05-19T18:46:39.905Z,70.90
2019-05-19T18:49:08.426Z,71.10
2019-05-19T18:51:36.865Z,71.20
2019-05-19T18:54:05.299Z,71.40
2019-05-19T18:56:33.774Z,71.40
2019-05-19T18:59:02.228Z,71.60
2019-05-19T19:01:31.030Z,71.90
2019-05-19T19:03:59.483Z,72.20
2019-05-19T19:06:30.142Z,72.80
2019-05-19T19:08:58.591Z,73.20
2019-05-19T19:11:27.041Z,73.80
2019-05-19T19:13:55.487Z,74.20
2019-05-19T19:16:24.008Z,74.50
2019-05-19T19:18:52.448Z,75.00
2019-05-19T19:21:20.905Z,75.40
2019-05-19T19:23:49.348Z,75.80
2019-05-19T19:26:17.800Z,76.20
2019-05-19T19:28:46.277Z,76.60
2019-05-19T19:31:14.771Z,76.80
2019-05-19T19:33:45.144Z,77.20
2019-05-19T19:36:15.922Z,77.30
2019-05-19T19:38:44.358Z,77.50
2019-05-19T19:41:12.818Z,77.80
2019-05-19T19:43:41.339Z,77.80
2019-05-19T19:46:09.788Z,78.00
2019-05-19T19:48:38.277Z,78.00
2019-05-19T19:51:20.070Z,78.40
2019-05-19T19:53:48.527Z,78.60
2019-05-19T19:56:17.012Z,78.90
2019-05-19T19:58:45.491Z,79.20
2019-05-19T20:01:13.943Z,80.10
2019-05-19T20:03:42.400Z,79.60
2019-05-19T20:06:10.869Z,79.80
2019-05-19T20:08:39.323Z,80.10
2019-05-19T20:11:07.772Z,80.40
2019-05-19T20:13:36.218Z,80.60
2019-05-19T20:16:04.684Z,80.70
2019-05-19T20:18:39.145Z,80.80
2019-05-19T20:21:11.450Z,80.90
2019-05-19T20:23:43.038Z,81.00
2019-05-19T20:26:11.496Z,81.20
2019-05-19T20:28:39.954Z,81.40
2019-05-19T20:31:08.406Z,81.70
2019-05-19T20:33:36.860Z,81.80
2019-05-19T20:36:05.401Z,82.00
2019-05-19T20:38:33.845Z,81.90
2019-05-19T20:41:02.301Z,82.30
2019-05-19T20:43:30.756Z,82.50
2019-05-19T20:45:59.192Z,82.50
2019-05-19T20:48:27.662Z,82.70
2019-05-19T20:50:56.094Z,83.10
2019-05-19T20:53:24.568Z,83.30
2019-05-19T20:55:53.008Z,83.50
2019-05-19T20:58:21.460Z,83.60
2019-05-19T21:00:51.864Z,84.00
2019-05-19T21:03:20.089Z,84.10
2019-05-19T21:05:48.544Z,84.30
2019-05-19T21:08:16.978Z,84.80
2019-05-19T21:10:45.420Z,84.70
2019-05-19T21:13:13.863Z,85.30
2019-05-19T21:15:42.391Z,85.50
2019-05-19T21:18:10.852Z,86.40
2019-05-19T21:20:40.955Z,86.10
2019-05-19T21:23:09.490Z,86.70
2019-05-19T21:25:37.928Z,86.70
2019-05-19T21:28:06.384Z,86.80
2019-05-19T21:30:34.836Z,86.90
2019-05-19T21:33:03.292Z,87.10
2019-05-19T21:35:32.120Z,87.20
2019-05-19T21:38:00.577Z,87.50
2019-05-19T21:40:29.036Z,87.40
2019-05-19T21:43:04.113Z,87.80
2019-05-19T21:45:32.569Z,88.00
2019-05-19T21:48:01.009Z,87.90
2019-05-19T21:50:29.471Z,88.00
2019-05-19T21:52:57.930Z,88.30
2019-05-19T21:55:26.360Z,88.50
2019-05-19T21:57:56.770Z,88.40
2019-05-19T22:00:26.923Z,88.80
2019-05-19T22:02:55.377Z,88.70
2019-05-19T22:05:23.835Z,88.80
2019-05-19T22:08:02.719Z,88.80
2019-05-19T22:10:31.150Z,88.90
2019-05-19T22:12:59.617Z,89.30
2019-05-19T22:15:28.051Z,89.90
2019-05-19T22:17:56.518Z,89.30
2019-05-19T22:20:25.078Z,89.40
2019-05-19T22:22:53.565Z,89.60
2019-05-19T22:25:22.032Z,89.50
2019-05-19T22:27:50.480Z,89.40
2019-05-19T22:30:19.189Z,89.70
2019-05-19T22:32:47.636Z,89.80
2019-05-19T22:35:16.339Z,89.90
2019-05-19T22:37:44.793Z,90.00
2019-05-19T22:40:13.368Z,90.00
2019-05-19T22:42:41.832Z,90.00
2019-05-19T22:45:10.413Z,90.00
2019-05-19T22:47:39.922Z,90.10
2019-05-19T22:50:09.321Z,90.10
2019-05-19T22:52:37.770Z,90.10
2019-05-19T22:55:07.667Z,90.00
2019-05-19T22:57:36.146Z,90.10
2019-05-19T23:00:07.304Z,90.10
2019-05-19T23:02:35.758Z,90.10
2019-05-19T23:05:06.310Z,90.20
2019-05-19T23:07:34.900Z,90.20
2019-05-19T23:10:04.826Z,90.20
2019-05-19T23:12:33.314Z,90.20
2019-05-19T23:15:01.774Z,90.30
2019-05-19T23:17:30.212Z,90.30
2019-05-19T23:19:58.675Z,90.40
2019-05-19T23:22:27.123Z,90.50
2019-05-19T23:24:55.808Z,90.50
2019-05-19T23:27:24.256Z,90.50
2019-05-19T23:29:52.705Z,90.70
2019-05-19T23:32:21.173Z,90.70
2019-05-19T23:34:49.611Z,90.70
2019-05-19T23:37:18.077Z,90.70
2019-05-19T23:39:46.610Z,90.80
2019-05-19T23:42:15.070Z,90.80
2019-05-19T23:44:43.522Z,90.80
2019-05-19T23:47:11.966Z,90.80
2019-05-19T23:49:40.420Z,90.90
2019-05-19T23:52:08.868Z,91.00
2019-05-19T23:54:38.952Z,91.00
2019-05-19T23:57:07.423Z,91.00
2019-05-19T23:59:35.873Z,91.00
